North Adams, Massachusetts
Current Conditions -  °F | °C
As of 7:07 PM on Wednesday 22 Oct 2014 (Local Time) from KAQW Reporting Station
Overcast Overcast  
Wind Chill: 48°   Ceiling: 2800
Heat Index: 48°   Visibility: 10mi
Dew Point: 46°   Wind: 3mph
Humidity: 93%   Direction: NA
Pressure: 29.96"   Gusts: NA
Location:  42.7°N, 73.11°W
Report Text: KAQW 222307Z AUTO VRB03KT 10SM OVC028 09/08 A2996 RMK AO2 T00890078
Loading
Personal Weather Stations






























Interactive Weather Map
Tropical Storm Tracking
New forecast layout! Learn more

10-Day Weather Forecast

Advertisements
Track Severe Weather on mobile